Search for airport 
image banner adimage banner adimage banner ad
image banner ad

2CN6 - Department Of Water&Power Los Angeles

Located in Los Angeles, United States

ICAO - 2CN6, IATA -

Data provided by Airmate  

General information

Coordinates: N34°3'29" W118°14'58"
Elevation is 654 feet MSL.
 
View others Airports in California

Operational data

Special qualification required
Current time UTC:
Current local time:
METAR: KHHR 270353Z 29005KT 10SM FEW012 19/16 A2996 RMK AO2 SLP144 T01940156
View NOTAMs / SUP AIP / TFR affecting this airport [VIEW]
Communications frequencies: [VIEW]

Runways:

Airport contact information

Address: Los Angeles United States

Satellite view of 2CN6